Flugschule und Pilotenausbildung

Wir bieten eine professionelle und umfassende Ausbildung durch unsere erfahrenen Piloten, Fluglehrer und Prüfer, die Sie zum Erwerb der folgenden Lizenzen führen:

 

Schulungsräume

Je nach Teilnehmerzahl findet der Unterricht in zwei vollausgestatteten Räumen statt.

 Bis 5 Teilnehmer in Feldgeding bei Dachau:

Schulungsraum Feldgeding

Bei 6 oder mehr Teilnehmern in Gröbenzell:

Schulungsraum Gröbenzell

Flugzeuge

Wir schulen auf unseren eigenen Flugzeugen. Mehr Informationen zu unseren Flugzeugen finden Sie hier ...

 

Flugwetter Augsburg

[source: ADDS]
METAR
EDMA 100620Z 17007KT CAVOK 21/14 Q1013 =
TAF EDMA 100500Z 1006/1015 17005KT CAVOK BECMG 1007/1009 24010KT TEMPO 1012/1015 25015G25KT PROB30 TEMPO 1013/1015 27020G40KT TSRA SCT040CB
TAF
TAF EDMA 100500Z 1006/1015 17005KT CAVOK BECMG 1007/1009 24010KT TEMPO 1012/1015 25015G25KT PROB30 TEMPO 1013/1015 27020G40KT TSRA SCT040CB =
Cookies erleichtern die Bereitstellung unserer Dienste. Mit der Nutzung unserer Dienste erklären Sie sich damit einverstanden, dass wir Cookies verwenden.
Weitere Informationen Ok